This is the latest recevied weather packets stored in our database for station/object W8KHW. If no packets are shown the sender has not sent any weather packets the latest 10 day(s).
| Time | Temp. | Humidity | Pressure | Rain* | Wind** | Luminosity | Snow |
|---|---|---|---|---|---|---|---|
| 1777942978 | 19.44° C | 64% | 1005.9 hPa | 0 mm | - | - | - |
| 1777942478 | 19.44° C | 64% | 1006.1 hPa | 0 mm | - | - | - |
| 1777941978 | 20° C | 64% | 1006.1 hPa | 0 mm | - | - | - |
| 1777941478 | 20° C | 62% | 1005.9 hPa | 0 mm | - | - | - |
| 1777940977 | 20° C | 62% | 1005.9 hPa | 0 mm | - | - | - |
| 1777940477 | 20.56° C | 61% | 1006.1 hPa | 0 mm | - | - | - |
| 1777939977 | 21.11° C | 60% | 1006 hPa | 0 mm | - | - | - |
| 1777939477 | 21.11° C | 57% | 1005.9 hPa | 0 mm | - | - | - |
| 1777938977 | 21.67° C | 56% | 1005.9 hPa | 0 mm | - | - | - |
| 1777938476 | 21.67° C | 56% | 1006.2 hPa | 0 mm | - | - | - |
| 1777937976 | 22.22° C | 53% | 1006.3 hPa | 0 mm | - | - | - |
| 1777937476 | 22.22° C | 54% | 1006.2 hPa | 0 mm | - | - | - |
| 1777936976 | 22.78° C | 56% | 1006.3 hPa | 0 mm | - | - | - |
| 1777936475 | 22.22° C | 57% | 1006.1 hPa | 0 mm | - | - | - |
| 1777935975 | 22.22° C | 55% | 1006.3 hPa | 0 mm | - | - | - |
| 1777935475 | 21.67° C | 58% | 1006.3 hPa | 0 mm | - | - | - |
| 1777934975 | 21.67° C | 57% | 1006.5 hPa | 0 mm | - | - | - |
| 1777934474 | 21.67° C | 56% | 1006.6 hPa | 0 mm | - | - | - |
| 1777933974 | 21.67° C | 58% | 1006.6 hPa | 0 mm | - | - | - |
| 1777933474 | 22.22° C | 55% | 1006.8 hPa | 0 mm | - | - | - |
| 1777932974 | 22.22° C | 56% | 1007 hPa | 0 mm | - | - | - |
| 1777932474 | 20.56° C | 59% | 1007.1 hPa | 0 mm | - | - | - |
| 1777931973 | 20.56° C | 62% | 1006.7 hPa | 0 mm | - | - | - |
| 1777931473 | 21.11° C | 59% | 1007.1 hPa | 0 mm | - | - | - |
| 1777930973 | 21.67° C | 57% | 1006.9 hPa | 0 mm | - | - | - |
* Rain latest hour (hover to see other rain measurements)
** Current wind speed in m/s (hover to see current wind gust speed)